createdAt,value
2022-10-28T00:00:09.020Z,13.71
2022-10-28T00:01:09.073Z,13.69
2022-10-28T00:02:09.023Z,13.72
2022-10-28T00:03:09.019Z,13.73
2022-10-28T00:04:08.972Z,13.75
2022-10-28T00:05:08.964Z,13.79
2022-10-28T00:06:08.992Z,13.81
2022-10-28T00:07:08.941Z,13.84
2022-10-28T00:08:08.918Z,13.84
2022-10-28T00:09:12.083Z,13.86
2022-10-28T00:10:08.929Z,13.86
2022-10-28T00:11:09.017Z,13.86
2022-10-28T00:12:08.866Z,13.86
2022-10-28T00:13:08.852Z,13.87
2022-10-28T00:14:08.844Z,13.87
2022-10-28T00:15:08.814Z,13.88
2022-10-28T00:16:08.855Z,13.88
2022-10-28T00:17:08.811Z,13.90
2022-10-28T00:18:08.793Z,13.93
2022-10-28T00:19:08.776Z,13.93
2022-10-28T00:20:08.783Z,13.93
2022-10-28T00:21:08.825Z,13.93
2022-10-28T00:22:08.757Z,13.90
2022-10-28T00:23:08.728Z,13.88
2022-10-28T00:24:08.719Z,13.88
2022-10-28T00:25:08.725Z,13.88
2022-10-28T00:26:08.708Z,13.87
2022-10-28T00:27:08.698Z,13.88
2022-10-28T00:28:08.653Z,13.90
2022-10-28T00:29:08.659Z,13.88
2022-10-28T00:30:08.639Z,13.87
2022-10-28T00:31:08.631Z,13.87
2022-10-28T00:32:08.645Z,13.87
2022-10-28T00:33:08.613Z,13.90
2022-10-28T00:34:08.646Z,13.88
2022-10-28T00:35:08.567Z,13.90
2022-10-28T00:36:08.567Z,13.91
2022-10-28T00:37:08.597Z,13.88
2022-10-28T00:38:08.551Z,13.88
2022-10-28T00:39:08.551Z,13.90
2022-10-28T00:40:08.520Z,13.88
2022-10-28T00:41:08.495Z,13.91
2022-10-28T00:42:08.520Z,13.91
2022-10-28T00:43:08.463Z,13.90
2022-10-28T00:44:08.475Z,13.90
2022-10-28T00:45:08.499Z,13.91
2022-10-28T00:46:08.434Z,13.93
2022-10-28T00:47:08.472Z,13.94
2022-10-28T00:48:08.421Z,13.93
2022-10-28T00:49:08.407Z,13.96
2022-10-28T00:50:08.386Z,13.96
2022-10-28T00:51:08.386Z,13.96
2022-10-28T00:52:08.377Z,13.96
2022-10-28T00:53:08.352Z,13.98
2022-10-28T00:54:08.381Z,13.99
2022-10-28T00:55:08.318Z,13.98
2022-10-28T00:56:08.332Z,13.99
2022-10-28T00:57:08.335Z,14.01
2022-10-28T00:58:09.016Z,14.02
2022-10-28T00:59:08.302Z,14.01
2022-10-28T01:00:08.252Z,14.01
2022-10-28T01:01:08.299Z,14.02
2022-10-28T01:02:08.350Z,14.02
2022-10-28T01:03:08.232Z,14.01
2022-10-28T01:04:08.202Z,14.02
2022-10-28T01:05:08.193Z,14.02
2022-10-28T01:06:08.183Z,14.04
2022-10-28T01:07:08.171Z,14.02
2022-10-28T01:08:08.159Z,14.02
2022-10-28T01:09:08.161Z,14.02
2022-10-28T01:10:08.162Z,14.01
2022-10-28T01:11:08.151Z,14.01
2022-10-28T01:12:08.099Z,13.99
2022-10-28T01:13:08.118Z,13.98
2022-10-28T01:14:08.082Z,13.96
2022-10-28T01:15:08.069Z,13.96
2022-10-28T01:16:08.117Z,13.94
2022-10-28T01:17:08.065Z,13.93
2022-10-28T01:18:08.049Z,13.93
2022-10-28T01:19:08.455Z,13.91
2022-10-28T01:20:08.012Z,13.91
2022-10-28T01:21:08.004Z,13.91
2022-10-28T01:22:08.002Z,13.91
2022-10-28T01:23:07.970Z,13.91
2022-10-28T01:24:07.953Z,13.91
2022-10-28T01:25:07.941Z,13.91
2022-10-28T01:26:07.923Z,13.90
2022-10-28T01:27:07.980Z,13.91
2022-10-28T01:28:07.929Z,13.88
2022-10-28T01:29:07.894Z,13.88
2022-10-28T01:30:07.892Z,13.87
2022-10-28T01:31:07.869Z,13.87
2022-10-28T01:32:07.859Z,13.87
2022-10-28T01:33:07.856Z,13.86
2022-10-28T01:34:07.828Z,13.88
2022-10-28T01:35:07.818Z,13.86
2022-10-28T01:36:07.839Z,13.87
2022-10-28T01:37:07.809Z,13.86
2022-10-28T01:38:07.804Z,13.86
2022-10-28T01:39:07.781Z,13.86
2022-10-28T01:40:07.736Z,13.84
2022-10-28T01:41:07.777Z,13.83
2022-10-28T01:42:07.719Z,13.81
2022-10-28T01:43:07.917Z,13.83
2022-10-28T01:44:07.696Z,13.83
2022-10-28T01:45:08.230Z,13.83
2022-10-28T01:46:07.689Z,13.84
2022-10-28T01:47:07.685Z,13.83
2022-10-28T01:48:07.651Z,13.84
2022-10-28T01:49:07.624Z,13.84
2022-10-28T01:50:07.647Z,13.83
2022-10-28T01:51:07.674Z,13.84
2022-10-28T01:52:07.612Z,13.81
2022-10-28T01:53:07.603Z,13.81
2022-10-28T01:54:07.578Z,13.80
2022-10-28T01:55:07.597Z,13.79
2022-10-28T01:56:07.548Z,13.75
2022-10-28T01:57:07.527Z,13.72
2022-10-28T01:58:07.580Z,13.71
2022-10-28T01:59:07.516Z,13.69
2022-10-28T02:00:07.504Z,13.69
2022-10-28T02:01:07.552Z,13.68
2022-10-28T02:02:07.465Z,13.69
2022-10-28T02:03:07.467Z,13.71
2022-10-28T02:04:07.452Z,13.69
2022-10-28T02:05:07.424Z,13.71
2022-10-28T02:06:07.414Z,13.71
2022-10-28T02:07:07.420Z,13.69
2022-10-28T02:08:07.456Z,13.71
2022-10-28T02:09:07.390Z,13.69
2022-10-28T02:10:07.365Z,13.71
2022-10-28T02:11:14.453Z,13.69
2022-10-28T02:12:07.335Z,13.68
2022-10-28T02:13:07.336Z,13.66
2022-10-28T02:14:07.320Z,13.63
2022-10-28T02:16:07.312Z,13.63
2022-10-28T02:17:07.276Z,13.62
2022-10-28T02:18:07.284Z,13.62
2022-10-28T02:19:07.257Z,13.61
2022-10-28T02:20:07.270Z,13.55
2022-10-28T02:21:07.238Z,13.57
2022-10-28T02:22:07.223Z,13.54
2022-10-28T02:23:07.258Z,13.54
2022-10-28T02:24:07.197Z,13.53
2022-10-28T02:25:07.176Z,13.53
2022-10-28T02:26:07.169Z,13.51
2022-10-28T02:27:07.171Z,13.50
2022-10-28T02:28:07.204Z,13.47
2022-10-28T02:29:07.133Z,13.47
2022-10-28T02:30:07.102Z,13.44
2022-10-28T02:31:07.110Z,13.43
2022-10-28T02:32:07.084Z,13.43
2022-10-28T02:33:07.085Z,13.41
2022-10-28T02:34:07.055Z,13.41
2022-10-28T02:35:07.033Z,13.39
2022-10-28T02:36:07.035Z,13.36
2022-10-28T02:37:07.046Z,13.35
2022-10-28T02:38:07.002Z,13.32
2022-10-28T02:39:07.011Z,13.32
2022-10-28T02:40:07.054Z,13.32
2022-10-28T02:41:06.971Z,13.32
2022-10-28T02:42:06.951Z,13.32
2022-10-28T02:43:06.962Z,13.35
2022-10-28T02:44:06.948Z,13.38
2022-10-28T02:45:06.921Z,13.38
2022-10-28T02:46:06.902Z,13.36
2022-10-28T02:47:06.971Z,13.36
2022-10-28T02:48:06.871Z,13.35
2022-10-28T02:49:06.862Z,13.35
2022-10-28T02:50:06.834Z,13.36
2022-10-28T02:51:06.819Z,13.35
2022-10-28T02:52:06.822Z,13.38
2022-10-28T02:53:06.831Z,13.38
2022-10-28T02:54:06.799Z,13.41
2022-10-28T02:55:06.780Z,13.43
2022-10-28T02:56:06.897Z,13.44
2022-10-28T02:57:06.778Z,13.46
2022-10-28T02:58:06.769Z,13.46
2022-10-28T02:59:07.553Z,13.46
2022-10-28T03:00:06.718Z,13.43
2022-10-28T03:01:06.798Z,13.39
2022-10-28T03:02:06.736Z,13.38
2022-10-28T03:03:06.704Z,13.36
2022-10-28T03:04:06.681Z,13.35
2022-10-28T03:05:06.679Z,13.32
2022-10-28T03:06:06.639Z,13.31
2022-10-28T03:07:06.649Z,13.29
2022-10-28T03:08:06.617Z,13.28
2022-10-28T03:09:06.599Z,13.28
2022-10-28T03:10:06.587Z,13.28
2022-10-28T03:11:06.585Z,13.29
2022-10-28T03:12:06.557Z,13.31
2022-10-28T03:13:06.551Z,13.28
2022-10-28T03:14:07.898Z,13.27
2022-10-28T03:15:06.516Z,13.25
2022-10-28T03:16:06.534Z,13.27
2022-10-28T03:17:06.517Z,13.24
2022-10-28T03:18:06.539Z,13.21
2022-10-28T03:19:06.492Z,13.19
2022-10-28T03:20:06.455Z,13.17
2022-10-28T03:21:06.446Z,13.16
2022-10-28T03:22:06.426Z,13.14
2022-10-28T03:23:06.440Z,13.14
2022-10-28T03:24:06.404Z,13.14
2022-10-28T03:25:06.386Z,13.16
2022-10-28T03:26:06.375Z,13.14
2022-10-28T03:27:06.364Z,13.16
2022-10-28T03:28:06.386Z,13.14
2022-10-28T03:29:06.344Z,13.14
2022-10-28T03:30:06.337Z,13.14
2022-10-28T03:31:06.325Z,13.13
2022-10-28T03:32:06.294Z,13.13
2022-10-28T03:33:06.292Z,13.13
2022-10-28T03:34:06.268Z,13.16
2022-10-28T03:35:06.282Z,13.14
2022-10-28T03:36:06.245Z,13.16
2022-10-28T03:37:06.337Z,13.16
2022-10-28T03:38:06.274Z,13.17
2022-10-28T03:39:06.210Z,13.17
2022-10-28T03:40:06.215Z,13.17
2022-10-28T03:41:06.187Z,13.16
2022-10-28T03:42:06.168Z,13.13
2022-10-28T03:43:06.162Z,13.10
2022-10-28T03:44:06.144Z,13.06
2022-10-28T03:45:06.137Z,13.01
2022-10-28T03:46:06.120Z,12.99
2022-10-28T03:47:06.099Z,12.98
2022-10-28T03:48:06.110Z,12.96
2022-10-28T03:49:06.091Z,12.95
2022-10-28T03:50:06.060Z,12.94
2022-10-28T03:51:06.059Z,12.94
2022-10-28T03:52:06.063Z,12.94
2022-10-28T03:53:06.123Z,12.94
2022-10-28T03:54:06.035Z,12.94
2022-10-28T03:55:06.006Z,12.95
2022-10-28T03:56:05.993Z,12.95
2022-10-28T03:57:05.970Z,12.95
2022-10-28T03:58:06.010Z,12.96
2022-10-28T03:59:05.996Z,12.92
2022-10-28T04:00:05.932Z,12.92
2022-10-28T04:01:06.096Z,12.94
2022-10-28T04:02:06.251Z,12.94
2022-10-28T04:03:05.911Z,12.92
2022-10-28T04:04:06.628Z,12.91
2022-10-28T04:05:05.884Z,12.88
2022-10-28T04:06:05.871Z,12.87
2022-10-28T04:07:05.840Z,12.85
2022-10-28T04:08:05.851Z,12.88
2022-10-28T04:09:05.844Z,12.87
2022-10-28T04:10:05.806Z,12.89
2022-10-28T04:11:05.799Z,12.91
2022-10-28T04:13:05.787Z,12.89
2022-10-28T04:14:05.775Z,12.88
2022-10-28T04:15:06.452Z,12.87
2022-10-28T04:16:05.747Z,12.87
2022-10-28T04:17:06.669Z,12.85
2022-10-28T04:18:05.705Z,12.81
2022-10-28T04:19:05.698Z,12.81
2022-10-28T04:20:05.679Z,12.79
2022-10-28T04:21:05.704Z,12.77
2022-10-28T04:22:05.667Z,12.74
2022-10-28T04:23:05.649Z,12.74
2022-10-28T04:24:05.629Z,12.71
2022-10-28T04:25:05.681Z,12.71
2022-10-28T04:26:05.625Z,12.73
2022-10-28T04:27:05.590Z,12.70
2022-10-28T04:28:05.576Z,12.67
2022-10-28T04:29:05.579Z,12.67
2022-10-28T04:30:05.553Z,12.70
2022-10-28T04:31:05.537Z,12.70
2022-10-28T04:32:05.600Z,12.67
2022-10-28T04:33:05.520Z,12.63
2022-10-28T04:34:05.736Z,12.63
2022-10-28T04:35:05.512Z,12.63
2022-10-28T04:36:05.513Z,12.62
2022-10-28T04:37:05.495Z,12.62
2022-10-28T04:38:05.453Z,12.62
2022-10-28T04:39:05.494Z,12.63
2022-10-28T04:40:05.471Z,12.62
2022-10-28T04:41:05.415Z,12.63
2022-10-28T04:42:05.588Z,12.63
2022-10-28T04:43:08.503Z,12.67
2022-10-28T04:44:05.368Z,12.67
2022-10-28T04:45:05.366Z,12.62
2022-10-28T04:46:05.374Z,12.66
2022-10-28T04:47:05.348Z,12.63
2022-10-28T04:48:05.344Z,12.63
2022-10-28T04:49:05.347Z,12.62
2022-10-28T04:50:05.315Z,12.62
2022-10-28T04:51:05.292Z,12.61
2022-10-28T04:52:05.276Z,12.61
2022-10-28T04:53:05.262Z,12.61
2022-10-28T04:54:05.263Z,12.62
2022-10-28T04:55:05.283Z,12.61
2022-10-28T04:56:05.209Z,12.61
2022-10-28T04:57:05.215Z,12.63
2022-10-28T04:58:05.197Z,12.62
2022-10-28T04:59:05.225Z,12.62
2022-10-28T05:00:05.192Z,12.61
2022-10-28T05:01:05.189Z,12.61
2022-10-28T05:02:05.270Z,12.61
2022-10-28T05:03:05.164Z,12.61
2022-10-28T05:04:05.114Z,12.59
2022-10-28T05:05:05.147Z,12.58
2022-10-28T05:06:05.104Z,12.55
2022-10-28T05:07:05.110Z,12.54
2022-10-28T05:08:05.071Z,12.51
2022-10-28T05:09:05.078Z,12.46
2022-10-28T05:10:05.072Z,12.44
2022-10-28T05:11:05.030Z,12.44
2022-10-28T05:12:05.010Z,12.43
2022-10-28T05:13:05.022Z,12.43
2022-10-28T05:14:05.025Z,12.46
2022-10-28T05:15:04.981Z,12.43
2022-10-28T05:16:04.969Z,12.41
2022-10-28T05:17:05.019Z,12.38
2022-10-28T05:18:04.963Z,12.40
2022-10-28T05:19:04.958Z,12.38
2022-10-28T05:20:04.911Z,12.36
2022-10-28T05:21:04.944Z,12.37
2022-10-28T05:22:04.886Z,12.38
2022-10-28T05:23:04.886Z,12.40
2022-10-28T05:24:04.869Z,12.38
2022-10-28T05:25:04.852Z,12.41
2022-10-28T05:26:04.829Z,12.43
2022-10-28T05:27:04.818Z,12.43
2022-10-28T05:28:04.812Z,12.46
2022-10-28T05:29:04.809Z,12.49
2022-10-28T05:30:04.786Z,12.51
2022-10-28T05:31:04.797Z,12.51
2022-10-28T05:33:04.751Z,12.54
2022-10-28T05:34:04.732Z,12.52
2022-10-28T05:35:04.746Z,12.51
2022-10-28T05:36:04.774Z,12.52
2022-10-28T05:37:04.796Z,12.54
2022-10-28T05:38:04.691Z,12.54
2022-10-28T05:39:04.679Z,12.54
2022-10-28T05:40:04.710Z,12.52
2022-10-28T05:41:04.722Z,12.52
2022-10-28T05:42:04.636Z,12.49
2022-10-28T05:43:04.619Z,12.54
2022-10-28T05:44:04.614Z,12.54
2022-10-28T05:45:04.638Z,12.55
2022-10-28T05:46:04.584Z,12.56
2022-10-28T05:47:04.572Z,12.61
2022-10-28T05:48:04.603Z,12.59
2022-10-28T05:49:04.845Z,12.62
2022-10-28T05:50:04.539Z,12.63
2022-10-28T05:51:04.524Z,12.67
2022-10-28T05:52:04.514Z,12.67
2022-10-28T05:53:04.485Z,12.69
2022-10-28T05:54:04.493Z,12.70
2022-10-28T05:55:04.470Z,12.71
2022-10-28T05:56:04.480Z,12.73
2022-10-28T05:57:04.435Z,12.73
2022-10-28T05:58:04.478Z,12.74
2022-10-28T05:59:04.505Z,12.76
2022-10-28T06:00:04.412Z,12.77
2022-10-28T06:01:04.383Z,12.79
2022-10-28T06:02:04.464Z,12.80
2022-10-28T06:03:04.381Z,12.81
2022-10-28T06:04:04.371Z,12.84
2022-10-28T06:05:04.341Z,12.84
2022-10-28T06:06:04.382Z,12.85
2022-10-28T06:07:04.500Z,12.87
2022-10-28T06:08:04.450Z,12.88
2022-10-28T06:09:04.306Z,12.89
2022-10-28T06:10:04.279Z,12.89
2022-10-28T06:11:02.715Z,12.89
2022-10-28T06:12:02.716Z,12.92
2022-10-28T06:13:02.712Z,12.94
2022-10-28T06:14:02.720Z,12.96
2022-10-28T06:15:03.005Z,12.96
2022-10-28T06:16:02.678Z,12.99
2022-10-28T06:17:02.639Z,12.99
2022-10-28T06:18:02.643Z,13.01
2022-10-28T06:19:02.631Z,13.01
2022-10-28T06:20:02.629Z,13.03
2022-10-28T06:21:02.642Z,13.04
2022-10-28T06:22:02.613Z,13.04
2022-10-28T06:23:02.595Z,13.07
2022-10-28T06:24:02.566Z,13.06
2022-10-28T06:25:02.555Z,13.07
2022-10-28T06:26:02.535Z,13.09
2022-10-28T06:27:02.562Z,13.09
2022-10-28T06:28:04.805Z,13.12
2022-10-28T06:29:02.531Z,13.12
2022-10-28T06:30:02.516Z,13.13
2022-10-28T06:31:03.093Z,13.12
2022-10-28T06:32:02.503Z,13.14
2022-10-28T06:33:02.453Z,13.13
2022-10-28T06:34:02.442Z,13.16
2022-10-28T06:35:02.432Z,13.16
2022-10-28T06:36:02.435Z,13.17
2022-10-28T06:37:02.465Z,13.19
2022-10-28T06:38:05.936Z,13.19
2022-10-28T06:39:03.422Z,13.19
2022-10-28T06:40:02.405Z,13.21
2022-10-28T06:41:02.368Z,13.21
2022-10-28T06:42:02.370Z,13.21
2022-10-28T06:43:02.338Z,13.24
2022-10-28T06:44:02.347Z,13.27
2022-10-28T06:45:02.362Z,13.25
2022-10-28T06:46:02.336Z,13.27
2022-10-28T06:47:03.802Z,13.28
2022-10-28T06:48:03.796Z,13.29
2022-10-28T06:49:03.789Z,13.29
2022-10-28T06:50:03.775Z,13.29
2022-10-28T06:51:03.748Z,13.31
2022-10-28T06:52:03.748Z,13.29
2022-10-28T06:53:03.706Z,13.29
2022-10-28T06:54:03.720Z,13.29
2022-10-28T06:55:03.696Z,13.32
2022-10-28T06:56:03.713Z,13.35
2022-10-28T06:57:03.678Z,13.47
2022-10-28T06:58:03.719Z,13.50
2022-10-28T06:59:03.653Z,13.55
2022-10-28T07:00:03.708Z,13.55
2022-10-28T07:01:03.643Z,13.54
2022-10-28T07:02:03.712Z,13.61
2022-10-28T07:03:03.686Z,13.61
2022-10-28T07:04:03.599Z,13.69
2022-10-28T07:05:03.617Z,13.68
2022-10-28T07:06:03.648Z,13.65
2022-10-28T07:07:04.637Z,13.63
2022-10-28T07:08:03.578Z,13.65
2022-10-28T07:09:03.588Z,13.66
2022-10-28T07:10:03.551Z,13.66
2022-10-28T07:11:03.532Z,13.69
2022-10-28T07:12:05.114Z,13.69
2022-10-28T07:13:03.483Z,13.71
2022-10-28T07:14:03.505Z,13.73
2022-10-28T07:15:03.440Z,13.73
2022-10-28T07:16:03.463Z,13.75
2022-10-28T07:17:03.419Z,13.76
2022-10-28T07:18:03.428Z,13.76
2022-10-28T07:19:03.467Z,13.80
2022-10-28T07:20:03.408Z,13.83
2022-10-28T07:21:03.396Z,13.86
2022-10-28T07:22:03.433Z,13.87
2022-10-28T07:23:03.421Z,13.93
2022-10-28T07:24:03.349Z,13.96
2022-10-28T07:25:03.347Z,13.99
2022-10-28T07:26:03.348Z,14.01
2022-10-28T07:27:03.322Z,14.06
2022-10-28T07:28:03.340Z,14.09
2022-10-28T07:29:03.309Z,14.09
2022-10-28T07:30:03.344Z,14.11
2022-10-28T07:31:03.379Z,14.12
2022-10-28T07:32:03.258Z,14.17
2022-10-28T07:33:03.238Z,14.24
2022-10-28T07:34:03.273Z,14.29
2022-10-28T07:35:03.231Z,14.30
2022-10-28T07:36:03.201Z,14.30
2022-10-28T07:37:03.181Z,14.31
2022-10-28T07:38:03.186Z,14.34
2022-10-28T07:39:03.209Z,14.36
2022-10-28T07:40:03.175Z,14.42
2022-10-28T07:41:03.141Z,14.45
2022-10-28T07:42:03.188Z,14.52
2022-10-28T07:43:03.115Z,14.56
2022-10-28T07:44:03.118Z,14.59
2022-10-28T07:45:03.113Z,14.64
2022-10-28T07:46:03.075Z,14.66
2022-10-28T07:47:03.089Z,14.71
2022-10-28T07:48:03.058Z,14.72
2022-10-28T07:49:03.051Z,14.78
2022-10-28T07:50:03.060Z,14.82
2022-10-28T07:51:03.019Z,14.86
2022-10-28T07:52:03.007Z,14.91
2022-10-28T07:53:03.050Z,14.95
2022-10-28T07:54:02.979Z,15.05
2022-10-28T07:55:03.062Z,15.13
2022-10-28T07:56:02.958Z,15.20
2022-10-28T07:57:02.978Z,15.23
2022-10-28T07:58:02.922Z,15.28
2022-10-28T07:59:02.907Z,15.30
2022-10-28T08:00:02.901Z,15.31
2022-10-28T08:01:03.972Z,15.35
2022-10-28T08:02:02.888Z,15.40
2022-10-28T08:03:02.841Z,15.46
2022-10-28T08:04:02.873Z,15.52
2022-10-28T08:05:03.668Z,15.55
2022-10-28T08:06:02.816Z,15.58
2022-10-28T08:07:02.791Z,15.56
2022-10-28T08:08:02.856Z,15.59
2022-10-28T08:09:02.756Z,15.64
2022-10-28T08:10:02.743Z,15.67
2022-10-28T08:11:09.803Z,15.73
2022-10-28T08:12:02.706Z,15.74
2022-10-28T08:13:02.794Z,15.73
2022-10-28T08:14:02.679Z,15.73
2022-10-28T08:15:02.695Z,15.73
2022-10-28T08:16:02.651Z,15.74
2022-10-28T08:17:02.653Z,15.74
2022-10-28T08:18:02.632Z,15.77
2022-10-28T08:19:06.809Z,15.80
2022-10-28T08:20:03.633Z,15.85
2022-10-28T08:21:02.632Z,15.88
2022-10-28T08:22:02.622Z,15.93
2022-10-28T08:23:04.105Z,15.98
2022-10-28T08:24:02.713Z,16.04
2022-10-28T08:25:02.529Z,16.08
2022-10-28T08:26:02.517Z,16.14
2022-10-28T08:27:02.493Z,16.25
2022-10-28T08:28:02.510Z,16.33
2022-10-28T08:29:02.471Z,16.41
2022-10-28T08:30:02.471Z,16.51
2022-10-28T08:31:09.957Z,16.57
2022-10-28T08:32:03.425Z,16.67
2022-10-28T08:33:02.422Z,16.78
2022-10-28T08:34:02.397Z,16.87
2022-10-28T08:35:02.390Z,16.91
2022-10-28T08:36:02.397Z,16.96
2022-10-28T08:37:02.474Z,16.99
2022-10-28T08:38:02.358Z,17.00
2022-10-28T08:39:02.451Z,16.98
2022-10-28T08:40:02.488Z,16.90
2022-10-28T08:41:02.346Z,16.82
2022-10-28T08:42:02.319Z,16.75
2022-10-28T08:43:02.349Z,16.69
2022-10-28T08:44:02.310Z,16.62
2022-10-28T08:45:02.375Z,16.55
2022-10-28T08:46:02.250Z,16.50
2022-10-28T08:47:02.255Z,16.45
2022-10-28T08:49:02.220Z,16.41
2022-10-28T08:50:02.200Z,16.41
2022-10-28T08:51:02.201Z,16.42
2022-10-28T08:52:02.298Z,16.42
2022-10-28T08:53:02.181Z,16.41
2022-10-28T08:54:02.280Z,16.37
2022-10-28T08:55:02.214Z,16.41
2022-10-28T08:56:02.137Z,16.44
2022-10-28T08:57:02.152Z,16.50
2022-10-28T08:58:02.120Z,16.55
2022-10-28T08:59:02.078Z,16.60
2022-10-28T09:00:02.088Z,16.65
2022-10-28T09:01:02.140Z,16.70
2022-10-28T09:02:02.060Z,16.75
2022-10-28T09:03:02.026Z,16.78
2022-10-28T09:04:02.023Z,16.81
2022-10-28T09:05:02.114Z,16.87
2022-10-28T09:06:02.861Z,16.96
2022-10-28T09:07:02.006Z,16.96
2022-10-28T09:08:01.966Z,16.99
2022-10-28T09:09:01.970Z,17.00
2022-10-28T09:10:01.959Z,16.96
2022-10-28T09:11:01.936Z,16.96
2022-10-28T09:12:01.931Z,17.00
2022-10-28T09:13:01.908Z,17.07
2022-10-28T09:14:01.910Z,17.12
2022-10-28T09:15:02.035Z,17.18
2022-10-28T09:16:01.924Z,17.22
2022-10-28T09:17:01.875Z,17.30
2022-10-28T09:18:01.877Z,17.36
2022-10-28T09:19:01.843Z,17.42
2022-10-28T09:20:01.842Z,17.47
2022-10-28T09:21:01.830Z,17.54
2022-10-28T09:22:01.901Z,17.60
2022-10-28T09:23:01.821Z,17.68
2022-10-28T09:24:01.773Z,17.71
2022-10-28T09:25:01.934Z,17.77
2022-10-28T09:26:01.752Z,17.79
2022-10-28T09:27:01.742Z,17.81
2022-10-28T09:28:01.726Z,17.87
2022-10-28T09:29:01.744Z,17.87
2022-10-28T09:30:01.695Z,17.94
2022-10-28T09:31:01.719Z,17.95
2022-10-28T09:32:01.692Z,17.95
2022-10-28T09:33:01.649Z,17.99
2022-10-28T09:34:01.640Z,18.04
2022-10-28T09:35:01.631Z,18.04
2022-10-28T09:36:01.661Z,18.07
2022-10-28T09:37:01.596Z,18.07
2022-10-28T09:38:01.630Z,18.10
2022-10-28T09:39:01.570Z,18.13
2022-10-28T09:40:01.558Z,18.16
2022-10-28T09:41:01.540Z,18.20
2022-10-28T09:42:01.552Z,18.26
2022-10-28T09:43:01.549Z,18.31
2022-10-28T09:44:01.523Z,18.35
2022-10-28T09:45:01.509Z,18.39
2022-10-28T09:46:01.491Z,18.44
2022-10-28T09:47:01.474Z,18.51
2022-10-28T09:48:01.470Z,18.56
2022-10-28T09:49:01.480Z,18.65
2022-10-28T09:50:01.459Z,18.72
2022-10-28T09:51:01.419Z,18.79
2022-10-28T09:52:01.430Z,18.87
2022-10-28T09:53:01.412Z,18.97
2022-10-28T09:54:01.387Z,19.01
2022-10-28T09:55:01.385Z,19.12
2022-10-28T09:56:01.415Z,19.21
2022-10-28T09:57:01.342Z,19.27
2022-10-28T09:58:01.348Z,19.39
2022-10-28T09:59:01.308Z,19.52
2022-10-28T10:00:01.316Z,19.61
2022-10-28T10:01:01.322Z,19.67
2022-10-28T10:02:01.401Z,19.75
2022-10-28T10:03:01.316Z,19.76
2022-10-28T10:04:01.260Z,19.76
2022-10-28T10:05:01.246Z,19.78
2022-10-28T10:06:01.227Z,19.76
2022-10-28T10:07:01.202Z,19.71
2022-10-28T10:08:01.236Z,19.67
2022-10-28T10:09:01.183Z,19.62
2022-10-28T10:10:01.299Z,19.64
2022-10-28T10:11:01.177Z,19.67
2022-10-28T10:12:01.145Z,19.68
2022-10-28T10:13:01.148Z,19.71
2022-10-28T10:14:01.128Z,19.71
2022-10-28T10:15:01.144Z,19.71
2022-10-28T10:16:01.188Z,19.70
2022-10-28T10:17:01.094Z,19.68
2022-10-28T10:18:01.081Z,19.65
2022-10-28T10:19:01.072Z,19.67
2022-10-28T10:20:01.078Z,19.65
2022-10-28T10:21:01.071Z,19.67
2022-10-28T10:22:01.017Z,19.65
2022-10-28T10:23:01.092Z,19.62
2022-10-28T10:24:01.231Z,19.61
2022-10-28T10:25:01.028Z,19.61
2022-10-28T10:26:00.989Z,19.62
2022-10-28T10:27:00.965Z,19.64
2022-10-28T10:28:00.967Z,19.67
2022-10-28T10:29:00.937Z,19.67
2022-10-28T10:30:01.104Z,19.67
2022-10-28T10:31:00.937Z,19.70
2022-10-28T10:32:00.913Z,19.71
2022-10-28T10:33:00.895Z,19.75
2022-10-28T10:34:00.867Z,19.75
2022-10-28T10:35:00.873Z,19.75
2022-10-28T10:36:00.864Z,19.76
2022-10-28T10:37:00.860Z,19.79
2022-10-28T10:38:00.824Z,19.79
2022-10-28T10:39:01.027Z,19.78
2022-10-28T10:40:00.816Z,19.80
2022-10-28T10:41:00.784Z,19.79
2022-10-28T10:42:00.763Z,19.83
2022-10-28T10:43:10.019Z,19.83
2022-10-28T10:44:01.782Z,19.87
2022-10-28T10:45:00.822Z,19.90
2022-10-28T10:46:00.716Z,19.92
2022-10-28T10:47:05.764Z,19.97
2022-10-28T10:48:03.167Z,19.95
2022-10-28T10:49:01.180Z,19.97
2022-10-28T10:50:00.705Z,19.98
2022-10-28T10:51:00.663Z,20.04
2022-10-28T10:52:00.643Z,20.07
2022-10-28T10:53:00.646Z,20.19
2022-10-28T10:54:00.617Z,20.27
2022-10-28T10:55:00.613Z,20.30
2022-10-28T10:56:00.604Z,20.33
2022-10-28T10:57:00.575Z,20.37
2022-10-28T10:58:00.870Z,20.37
2022-10-28T10:59:00.578Z,20.38
2022-10-28T11:00:00.543Z,20.38
2022-10-28T11:01:00.535Z,20.38
2022-10-28T11:02:00.640Z,20.46
2022-10-28T11:03:00.534Z,20.56
2022-10-28T11:04:00.489Z,20.58
2022-10-28T11:05:00.494Z,20.58
2022-10-28T11:06:22.148Z,20.58
2022-10-28T11:07:01.632Z,20.63
2022-10-28T11:08:00.474Z,20.63
2022-10-28T11:09:00.567Z,20.69
2022-10-28T11:10:00.419Z,20.68
2022-10-28T11:11:00.403Z,20.69
2022-10-28T11:12:00.377Z,20.71
2022-10-28T11:13:00.392Z,20.73
2022-10-28T11:14:00.358Z,20.75
2022-10-28T11:15:00.351Z,20.75
2022-10-28T11:16:00.334Z,20.76
2022-10-28T11:17:00.349Z,20.73
2022-10-28T11:18:02.565Z,20.69
2022-10-28T11:19:00.313Z,20.72
2022-10-28T11:20:00.442Z,20.72
2022-10-28T11:21:00.262Z,20.75
2022-10-28T11:22:00.258Z,20.75
2022-10-28T11:23:00.243Z,20.85
2022-10-28T11:24:00.231Z,20.87
2022-10-28T11:25:00.241Z,20.90
2022-10-28T11:26:00.212Z,20.93
2022-10-28T11:27:00.194Z,20.91
2022-10-28T11:28:04.057Z,20.93
2022-10-28T11:29:00.184Z,20.96
2022-10-28T11:30:00.201Z,20.98
2022-10-28T11:31:00.259Z,21.03
2022-10-28T11:32:00.145Z,21.05
2022-10-28T11:33:14.806Z,21.11
2022-10-28T11:34:01.572Z,21.13
2022-10-28T11:35:00.103Z,21.12
2022-10-28T11:36:00.118Z,21.13
2022-10-28T11:37:00.083Z,21.18
2022-10-28T11:38:00.085Z,21.18
2022-10-28T11:39:00.050Z,21.21
2022-10-28T11:40:00.037Z,21.21
2022-10-28T11:41:00.038Z,21.19
2022-10-28T11:42:00.018Z,21.22
2022-10-28T11:43:00.117Z,21.18
2022-10-28T11:44:05.049Z,21.18
2022-10-28T11:45:00.990Z,21.21
2022-10-28T11:46:00.105Z,21.24
2022-10-28T11:47:03.985Z,21.28
2022-10-28T11:48:00.923Z,21.36
2022-10-28T11:48:59.954Z,21.45
2022-10-28T11:49:59.902Z,21.46
2022-10-28T11:50:59.911Z,21.52
2022-10-28T11:51:59.941Z,21.58
2022-10-28T11:52:59.874Z,21.58
2022-10-28T11:53:59.887Z,21.53
2022-10-28T11:54:59.941Z,21.58
2022-10-28T11:56:00.192Z,21.58
2022-10-28T11:56:59.830Z,21.56
2022-10-28T11:57:59.845Z,21.61
2022-10-28T11:58:59.794Z,21.61
2022-10-28T11:59:59.804Z,21.61
2022-10-28T12:00:59.819Z,21.58
2022-10-28T12:01:59.908Z,21.53
2022-10-28T12:03:00.335Z,21.52
2022-10-28T12:03:59.697Z,21.49
2022-10-28T12:04:59.741Z,21.46
2022-10-28T12:05:59.830Z,21.45
2022-10-28T12:06:59.690Z,21.45
2022-10-28T12:07:59.682Z,21.46
2022-10-28T12:08:59.729Z,21.48
2022-10-28T12:09:59.637Z,21.52
2022-10-28T12:10:59.716Z,21.58
2022-10-28T12:11:59.635Z,21.61
2022-10-28T12:13:00.574Z,21.67
2022-10-28T12:15:01.675Z,21.86
2022-10-28T12:16:00.118Z,21.99
2022-10-28T12:16:59.583Z,22.06
2022-10-28T12:17:59.608Z,22.15
2022-10-28T12:18:59.659Z,22.20
2022-10-28T12:19:59.698Z,22.27
2022-10-28T12:20:59.590Z,22.29
2022-10-28T12:21:59.484Z,22.27
2022-10-28T12:22:59.571Z,22.24
2022-10-28T12:23:59.515Z,22.19
2022-10-28T12:24:59.555Z,22.09
2022-10-28T12:26:00.231Z,21.99
2022-10-28T12:26:59.449Z,21.89
2022-10-28T12:27:59.487Z,21.82
2022-10-28T12:28:59.639Z,21.75
2022-10-28T12:29:59.432Z,21.73
2022-10-28T12:30:59.383Z,21.71
2022-10-28T12:31:59.384Z,21.70
2022-10-28T12:32:59.339Z,21.70
2022-10-28T12:33:59.333Z,21.73
2022-10-28T12:34:59.332Z,21.74
2022-10-28T12:35:59.323Z,21.71
2022-10-28T12:36:59.323Z,21.75
2022-10-28T12:37:59.270Z,21.82
2022-10-28T12:39:00.229Z,21.85
2022-10-28T12:39:59.263Z,21.93
2022-10-28T12:40:59.300Z,21.98
2022-10-28T12:41:59.229Z,22.02
2022-10-28T12:42:59.251Z,22.04
2022-10-28T12:43:59.198Z,22.05
2022-10-28T12:44:59.238Z,22.05
2022-10-28T12:45:59.264Z,22.05
2022-10-28T12:46:59.198Z,22.02
2022-10-28T12:47:59.467Z,21.96
2022-10-28T12:48:59.196Z,21.93
2022-10-28T12:49:59.140Z,21.89
2022-10-28T12:51:00.226Z,21.85
2022-10-28T12:51:59.120Z,21.86
2022-10-28T12:52:59.100Z,21.89
2022-10-28T12:53:59.105Z,21.83
2022-10-28T12:54:59.060Z,21.82
2022-10-28T12:55:59.196Z,21.83
2022-10-28T12:56:59.049Z,21.82